Time;durP1;ratioP1;P1;durP2;ratioP2;P2;SDS_P1;SDS_P2;PMS_P1;PMS_P2;Temp;Humidity;BMP_temperature;BMP_pressure;BME280_temperature;BME280_humidity;BME280_pressure;Samples;Min_cycle;Max_cycle;Signal;HPM_P1;HPM_P2
2023/01/03 00:02:06;;;;;;;10.68;5.05;;;5.60;99.90;;;;;;5090879;28;20094;-60
2023/01/03 00:04:32;;;;;;;8.57;4.57;;;5.50;99.90;;;;;;5089693;28;20550;-60
2023/01/03 00:06:59;;;;;;;10.38;5.07;;;5.40;99.90;;;;;;5090020;28;20028;-59
2023/01/03 00:09:26;;;;;;;11.55;4.60;;;5.40;99.90;;;;;;5087061;28;20037;-59
2023/01/03 00:14:41;;;;;;;10.10;4.28;;;5.50;99.90;;;;;;5091275;28;20090;-60
2023/01/03 00:17:08;;;;;;;7.70;3.75;;;5.50;99.90;;;;;;5091403;28;20040;-59
2023/01/03 00:19:38;;;;;;;12.40;4.72;;;5.40;99.90;;;;;;5083706;28;20094;-59
2023/01/03 00:22:05;;;;;;;11.23;4.18;;;5.40;99.90;;;;;;5088005;28;20032;-59
2023/01/03 00:24:32;;;;;;;10.75;3.97;;;5.40;99.90;;;;;;5098438;28;20040;-59
2023/01/03 00:26:59;;;;;;;10.48;5.35;;;5.50;99.90;;;;;;5102586;28;20051;-58
2023/01/03 00:29:26;;;;;;;9.20;5.05;;;5.50;99.90;;;;;;5085540;28;20033;-60
2023/01/03 00:31:53;;;;;;;9.52;4.90;;;5.40;99.90;;;;;;5089144;28;20048;-60
2023/01/03 00:34:20;;;;;;;11.88;4.90;;;5.50;99.90;;;;;;5089587;28;20067;-60
2023/01/03 00:36:47;;;;;;;11.93;5.10;;;5.50;99.90;;;;;;5085081;28;20465;-60
2023/01/03 00:39:13;;;;;;;11.05;5.00;;;5.60;99.90;;;;;;5071366;28;20040;-60
2023/01/03 00:41:41;;;;;;;10.02;5.05;;;5.50;99.90;;;;;;5080163;28;20072;-60
2023/01/03 00:44:08;;;;;;;10.05;4.57;;;5.60;99.90;;;;;;5090749;28;20040;-60
2023/01/03 00:46:35;;;;;;;11.85;4.88;;;5.60;99.90;;;;;;5091737;28;20097;-60
2023/01/03 00:49:03;;;;;;;9.80;4.60;;;5.70;99.90;;;;;;5073258;28;20107;-60
2023/01/03 00:51:32;;;;;;;12.35;3.90;;;5.70;99.90;;;;;;5070979;28;20036;-60
2023/01/03 00:54:00;;;;;;;8.50;4.47;;;5.60;99.90;;;;;;5092295;28;20044;-60
2023/01/03 00:56:36;;;;;;;8.23;4.47;;;5.60;99.90;;;;;;5091497;28;20492;-60
2023/01/03 00:59:04;;;;;;;11.25;4.80;;;5.60;99.90;;;;;;5082896;28;20040;-60
2023/01/03 01:01:34;;;;;;;14.52;4.75;;;5.60;99.90;;;;;;5083514;28;20546;-60
2023/01/03 01:04:16;;;;;;;10.48;5.43;;;5.60;99.90;;;;;;5088273;28;20037;-60
2023/01/03 01:06:46;;;;;;;9.45;5.22;;;5.50;99.90;;;;;;5100318;28;20098;-61
2023/01/03 01:09:16;;;;;;;8.77;4.53;;;5.60;99.90;;;;;;5082279;28;20051;-60
2023/01/03 01:11:46;;;;;;;12.75;4.80;;;5.50;99.90;;;;;;5081810;28;20086;-60
2023/01/03 01:14:20;;;;;;;12.88;4.93;;;5.60;99.90;;;;;;5071493;28;20060;-60
2023/01/03 01:17:00;;;;;;;8.75;4.38;;;5.60;99.90;;;;;;5079006;28;20097;-60
2023/01/03 01:19:30;;;;;;;10.50;4.47;;;6.60;99.90;;;;;;5090152;28;20101;-60
2023/01/03 01:21:57;;;;;;;11.73;5.32;;;5.60;99.90;;;;;;5077057;28;20390;-60
2023/01/03 01:24:25;;;;;;;7.75;3.78;;;5.60;99.90;;;;;;5071164;28;20072;-60
2023/01/03 01:26:52;;;;;;;;;;;5.60;99.90;;;;;;5082643;28;20044;-60
2023/01/03 01:29:19;;;;;;;8.73;3.78;;;5.70;99.90;;;;;;5071267;28;19921;-60
2023/01/03 01:31:46;;;;;;;10.57;3.78;;;5.70;99.90;;;;;;5069848;28;20492;-60
2023/01/03 01:34:13;;;;;;;;;;;5.80;99.90;;;;;;5071014;28;20048;-60
2023/01/03 01:36:42;;;;;;;9.55;3.92;;;5.80;99.90;;;;;;5077650;28;19920;-60
2023/01/03 01:39:14;;;;;;;10.30;3.72;;;5.80;99.90;;;;;;5079684;28;20046;-60
2023/01/03 01:44:46;;;;;;;8.63;4.38;;;5.80;99.90;;;;;;5086781;28;20554;-60
2023/01/03 01:47:31;;;;;;;9.98;4.57;;;5.70;99.90;;;;;;5079609;28;20508;-60
2023/01/03 01:50:27;;;;;;;10.45;4.38;;;5.70;99.90;;;;;;5083489;28;20078;-60
2023/01/03 01:53:11;;;;;;;10.95;4.70;;;5.70;99.90;;;;;;5070508;28;20078;-60
2023/01/03 01:56:00;;;;;;;8.93;4.15;;;5.80;99.90;;;;;;5074404;28;20129;-59
2023/01/03 01:58:31;;;;;;;6.53;4.03;;;5.70;99.90;;;;;;5081972;28;20071;-59
2023/01/03 02:00:58;;;;;;;8.43;3.85;;;5.70;99.90;;;;;;5089741;28;20044;-59
2023/01/03 02:03:25;;;;;;;7.72;4.25;;;5.80;99.90;;;;;;5081398;28;20070;-59
2023/01/03 02:05:54;;;;;;;11.80;5.57;;;5.90;99.90;;;;;;5071331;28;20068;-59
2023/01/03 02:08:22;;;;;;;9.75;5.38;;;5.90;99.90;;;;;;5076107;28;20127;-59
2023/01/03 02:10:54;;;;;;;10.13;4.60;;;5.90;99.90;;;;;;5070685;28;20028;-59
2023/01/03 02:14:04;;;;;;;10.68;5.00;;;5.90;99.90;;;;;;5068833;28;20044;-59
2023/01/03 02:16:55;;;;;;;9.95;3.78;;;5.90;99.90;;;;;;5069683;28;20087;-59
2023/01/03 02:19:45;;;;;;;11.48;4.25;;;6.00;99.90;;;;;;5078530;28;20559;-59
2023/01/03 02:22:56;;;;;;;8.88;3.40;;;6.00;99.90;;;;;;5072272;28;20110;-59
2023/01/03 02:26:01;;;;;;;8.32;3.53;;;6.00;99.90;;;;;;5070128;28;20142;-59
2023/01/03 02:29:07;;;;;;;6.40;3.83;;;6.00;99.90;;;;;;5069014;28;20101;-59
2023/01/03 02:31:45;;;;;;;9.90;4.18;;;6.00;99.90;;;;;;5070113;28;20052;-59
2023/01/03 02:34:36;;;;;;;8.23;3.85;;;6.00;99.90;;;;;;5079397;28;20040;-59
2023/01/03 02:37:21;;;;;;;9.57;4.45;;;5.90;99.90;;;;;;5087050;28;20399;-59
2023/01/03 02:40:16;;;;;;;8.60;4.07;;;5.90;99.90;;;;;;5070675;28;20037;-59
2023/01/03 02:43:00;;;;;;;7.90;3.80;;;5.90;99.90;;;;;;5074089;28;20929;-59
2023/01/03 02:45:49;;;;;;;7.18;3.88;;;6.00;99.90;;;;;;5090801;22;20044;-59
2023/01/03 02:48:29;;;;;;;6.72;3.85;;;5.90;99.90;;;;;;5068776;28;20493;-60
2023/01/03 02:50:59;;;;;;;6.35;3.88;;;5.90;99.90;;;;;;5069934;28;20451;-60
2023/01/03 02:53:39;;;;;;;7.47;4.10;;;6.00;99.90;;;;;;5069667;28;20037;-60
2023/01/03 02:56:13;;;;;;;8.07;4.22;;;6.00;99.90;;;;;;5078832;28;20085;-58
2023/01/03 02:58:45;;;;;;;9.98;3.90;;;6.00;99.90;;;;;;5072054;28;20101;-60
2023/01/03 03:01:12;;;;;;;9.90;3.88;;;6.00;99.90;;;;;;5052452;28;20044;-60
2023/01/03 03:03:40;;;;;;;10.30;4.25;;;6.00;99.90;;;;;;5089898;28;20047;-60
2023/01/03 03:06:33;;;;;;;6.72;4.10;;;6.00;99.90;;;;;;5089755;28;20428;-58
2023/01/03 03:09:00;;;;;;;8.75;4.30;;;6.00;99.90;;;;;;5052769;28;20052;-60
2023/01/03 03:14:21;;;;;;;11.35;4.53;;;5.90;99.90;;;;;;5070493;28;20044;-60
2023/01/03 03:16:51;;;;;;;8.50;4.25;;;5.90;99.90;;;;;;5068658;28;20173;-58
2023/01/03 03:25:24;;;;;;;9.57;4.45;;;6.00;99.90;;;;;;5082708;28;20036;-60
2023/01/03 03:28:43;;;;;;;9.60;4.50;;;6.10;99.90;;;;;;5081192;28;20403;-58
2023/01/03 03:30:53;;;;;;;12.95;4.50;;;6.10;99.90;;;;;;5078888;28;20098;-58
2023/01/03 03:33:21;;;;;;;9.23;4.53;;;6.10;99.90;;;;;;5082834;28;20059;-60
2023/01/03 03:36:18;;;;;;;11.02;4.72;;;6.00;99.90;;;;;;5084002;28;20036;-60
2023/01/03 03:38:45;;;;;;;9.57;4.13;;;5.90;99.90;;;;;;5087984;28;20073;-60
2023/01/03 03:47:39;;;;;;;10.20;4.13;;;5.90;99.90;;;;;;5092961;28;20047;-60
2023/01/03 03:50:33;;;;;;;10.60;3.53;;;5.90;99.90;;;;;;5089981;28;20124;-60
2023/01/03 03:53:04;;;;;;;7.00;3.58;;;6.00;99.90;;;;;;5080111;28;20113;-60
2023/01/03 03:55:43;;;;;;;11.73;3.80;;;6.00;99.90;;;;;;5084196;28;20108;-60
2023/01/03 03:58:22;;;;;;;8.52;3.55;;;6.00;99.90;;;;;;5081230;28;20039;-60
2023/01/03 04:00:51;;;;;;;7.20;3.67;;;6.10;99.90;;;;;;5073030;28;20097;-60
2023/01/03 04:03:20;;;;;;;8.57;4.10;;;6.10;99.90;;;;;;5090705;28;20032;-60
2023/01/03 04:05:56;;;;;;;6.43;3.58;;;6.00;99.90;;;;;;5087888;28;20060;-60
2023/01/03 04:08:23;;;;;;;8.70;4.82;;;6.10;99.90;;;;;;5073000;28;20044;-60
2023/01/03 04:10:50;;;;;;;8.70;3.67;;;6.10;99.90;;;;;;5072722;28;20040;-60
2023/01/03 04:13:17;;;;;;;9.27;3.92;;;6.00;99.90;;;;;;5053815;28;20040;-60
2023/01/03 04:15:44;;;;;;;9.73;4.28;;;6.00;99.90;;;;;;5072622;28;20040;-60
2023/01/03 04:18:10;;;;;;;6.50;3.67;;;6.00;99.90;;;;;;5071347;28;20048;-60
2023/01/03 04:20:37;;;;;;;9.18;3.78;;;6.00;99.90;;;;;;5071677;28;20040;-60
2023/01/03 04:23:03;;;;;;;8.68;3.58;;;6.00;99.90;;;;;;5059545;28;20098;-60
2023/01/03 04:25:32;;;;;;;11.82;4.40;;;6.00;99.90;;;;;;5072743;28;20040;-60
2023/01/03 04:27:59;;;;;;;9.45;4.20;;;6.10;99.90;;;;;;5071551;28;20098;-60
2023/01/03 04:30:26;;;;;;;7.00;4.07;;;6.00;99.90;;;;;;5056927;28;20086;-58
2023/01/03 04:32:52;;;;;;;6.22;3.45;;;6.00;99.90;;;;;;5084700;28;20040;-60
2023/01/03 04:35:19;;;;;;;8.40;3.70;;;6.00;99.90;;;;;;5091093;28;20044;-58
2023/01/03 04:37:46;;;;;;;7.47;3.15;;;6.00;99.90;;;;;;5083511;28;20052;-58
2023/01/03 04:40:12;;;;;;;9.75;3.38;;;6.00;99.90;;;;;;5071681;28;20033;-58
2023/01/03 04:45:24;;;;;;;6.85;3.30;;;6.00;99.90;;;;;;5091457;28;20048;-60
2023/01/03 04:47:52;;;;;;;9.40;3.15;;;6.00;99.90;;;;;;5082660;28;20045;-58
2023/01/03 04:50:19;;;;;;;9.68;3.97;;;6.00;99.90;;;;;;5072198;28;20053;-59
2023/01/03 04:52:46;;;;;;;9.30;4.13;;;6.00;99.90;;;;;;5071501;28;20060;-60
2023/01/03 04:55:13;;;;;;;14.63;4.60;;;6.00;99.90;;;;;;5071793;28;20045;-60
2023/01/03 04:57:39;;;;;;;6.85;4.05;;;5.90;99.90;;;;;;5070671;28;20052;-60
2023/01/03 05:00:07;;;;;;;11.93;4.50;;;5.80;99.90;;;;;;5072017;28;20045;-60
2023/01/03 05:02:34;;;;;;;10.35;4.30;;;5.70;99.90;;;;;;5086820;28;20040;-60
2023/01/03 05:05:01;;;;;;;7.70;4.22;;;5.70;99.90;;;;;;5087528;28;20036;-60
2023/01/03 05:07:28;;;;;;;9.38;4.18;;;5.70;99.90;;;;;;5072255;28;20099;-60
2023/01/03 05:09:55;;;;;;;7.78;4.07;;;5.70;99.90;;;;;;5076450;28;20032;-60
2023/01/03 05:12:21;;;;;;;8.02;4.43;;;5.80;99.90;;;;;;5070200;28;20041;-60
2023/01/03 05:14:48;;;;;;;11.43;4.82;;;5.80;99.90;;;;;;5071577;28;20052;-60
2023/01/03 05:17:17;;;;;;;9.68;4.50;;;5.80;99.90;;;;;;5076578;28;20562;-60
2023/01/03 05:28:01;;;;;;;8.93;4.63;;;5.90;99.90;;;;;;5085960;28;20040;-60
2023/01/03 05:30:28;;;;;;;10.98;4.90;;;5.90;99.90;;;;;;5087427;28;20048;-60
2023/01/03 05:32:55;;;;;;;9.25;4.70;;;5.90;99.90;;;;;;5071026;28;20102;-60
2023/01/03 05:35:22;;;;;;;13.30;4.93;;;5.90;99.90;;;;;;5082080;28;20059;-60
2023/01/03 05:37:51;;;;;;;10.75;4.97;;;5.90;99.90;;;;;;5088881;28;20078;-59
2023/01/03 05:40:18;;;;;;;9.02;4.10;;;5.90;99.90;;;;;;5084301;28;20044;-60
2023/01/03 05:42:45;;;;;;;12.57;4.53;;;5.90;99.90;;;;;;5070179;28;20094;-58
2023/01/03 05:45:12;;;;;;;12.35;5.68;;;5.80;99.90;;;;;;5071447;28;20111;-58
2023/01/03 05:47:39;;;;;;;11.27;5.47;;;5.80;99.90;;;;;;5070920;28;20051;-58
2023/01/03 05:50:06;;;;;;;9.90;4.65;;;5.80;99.90;;;;;;5068690;28;20094;-60
2023/01/03 05:52:32;;;;;;;12.85;5.85;;;5.70;99.90;;;;;;5075393;28;20037;-58
2023/01/03 05:54:59;;;;;;;10.20;5.22;;;5.70;99.90;;;;;;5069942;28;20040;-58
2023/01/03 05:57:26;;;;;;;12.88;4.75;;;5.70;99.90;;;;;;5070138;28;20036;-60
2023/01/03 06:00:00;;;;;;;12.27;5.43;;;5.70;99.90;;;;;;5069758;28;20048;-58
2023/01/03 06:02:31;;;;;;;11.07;4.93;;;5.70;99.90;;;;;;5076518;28;20459;-60
2023/01/03 06:04:57;;;;;;;10.77;4.75;;;5.70;99.90;;;;;;5069084;28;20135;-60
2023/01/03 06:07:24;;;;;;;9.85;5.72;;;5.60;99.90;;;;;;5070398;28;20447;-59
2023/01/03 06:09:51;;;;;;;9.90;5.80;;;5.60;99.90;;;;;;5071591;28;20044;-60
2023/01/03 06:12:18;;;;;;;19.65;5.72;;;5.70;99.90;;;;;;5080616;28;20048;-58
2023/01/03 06:14:44;;;;;;;12.20;5.00;;;5.70;99.90;;;;;;5068269;28;20550;-60
2023/01/03 06:19:56;;;;;;;12.50;5.63;;;5.80;99.90;;;;;;5069736;28;20539;-58
2023/01/03 06:22:23;;;;;;;14.65;6.75;;;5.80;99.90;;;;;;5074393;28;20101;-58
2023/01/03 06:24:50;;;;;;;18.10;7.80;;;5.80;99.90;;;;;;5069922;28;20109;-58
2023/01/03 06:27:17;;;;;;;17.10;7.47;;;5.90;99.90;;;;;;5072690;28;20422;-59
2023/01/03 06:29:43;;;;;;;15.73;6.20;;;5.80;99.90;;;;;;5086842;28;20094;-58
2023/01/03 06:32:10;;;;;;;12.60;5.90;;;5.80;99.90;;;;;;5088697;28;20040;-58
2023/01/03 06:34:37;;;;;;;17.40;6.32;;;5.80;99.90;;;;;;5086891;28;20049;-59
2023/01/03 06:37:04;;;;;;;12.88;6.15;;;5.80;99.90;;;;;;5078219;28;20098;-60
2023/01/03 06:39:32;;;;;;;19.38;5.50;;;5.80;99.90;;;;;;5070110;28;20102;-60
2023/01/03 06:42:38;;;;;;;10.65;4.18;;;5.80;99.90;;;;;;5071868;28;20067;-58
2023/01/03 06:53:11;;;;;;;14.52;4.60;;;5.90;99.90;;;;;;5073625;28;20843;-60
2023/01/03 06:53:14;;;;;;;19.23;5.70;;;5.90;99.90;;;;;;5074918;28;20074;-60
2023/01/03 06:55:43;;;;;;;12.15;4.80;;;5.80;99.90;;;;;;5084433;28;20048;-59
2023/01/03 06:58:10;;;;;;;8.52;4.10;;;5.80;99.90;;;;;;5078208;28;20090;-58
2023/01/03 07:00:40;;;;;;;13.13;4.82;;;5.80;99.90;;;;;;5069898;28;20102;-60
2023/01/03 07:03:06;;;;;;;10.25;4.82;;;5.80;99.90;;;;;;5070608;28;20044;-60
2023/01/03 07:05:38;;;;;;;13.05;5.03;;;5.80;99.90;;;;;;5077837;28;20042;-60
2023/01/03 07:08:04;;;;;;;12.57;5.15;;;5.80;99.90;;;;;;5063237;28;20037;-58
2023/01/03 07:10:31;;;;;;;11.48;5.13;;;5.70;99.90;;;;;;5073645;28;20053;-60
2023/01/03 07:15:47;;;;;;;13.75;6.15;;;5.60;99.90;;;;;;5085711;28;20043;-60
2023/01/03 07:18:14;;;;;;;15.30;7.13;;;5.70;99.90;;;;;;5091737;28;20408;-60
2023/01/03 07:20:44;;;;;;;19.05;8.20;;;5.60;99.90;;;;;;5091310;28;20044;-60
2023/01/03 07:23:12;;;;;;;21.10;8.80;;;5.70;99.90;;;;;;5075005;28;20040;-60
2023/01/03 07:25:41;;;;;;;16.40;7.80;;;5.70;99.90;;;;;;5078129;28;20036;-60
2023/01/03 07:28:12;;;;;;;18.33;9.38;;;5.70;99.90;;;;;;5073810;28;20041;-59
2023/01/03 07:30:41;;;;;;;16.08;7.68;;;5.70;99.90;;;;;;5078700;28;20044;-60
2023/01/03 07:33:10;;;;;;;23.52;8.30;;;5.80;99.90;;;;;;5088118;28;20085;-60
2023/01/03 07:35:37;;;;;;;16.67;7.82;;;5.80;99.90;;;;;;5087246;28;20052;-60
2023/01/03 07:38:04;;;;;;;;;;;5.90;99.90;;;;;;5089286;28;20044;-60
2023/01/03 07:40:31;;;;;;;15.45;7.30;;;5.90;99.90;;;;;;5085693;28;19982;-59
2023/01/03 07:45:44;;;;;;;16.17;7.18;;;5.90;99.90;;;;;;5071703;28;20094;-59
2023/01/03 07:48:12;;;;;;;15.25;7.20;;;5.80;99.90;;;;;;5073549;28;20048;-59
2023/01/03 07:50:39;;;;;;;11.27;6.00;;;5.80;99.90;;;;;;5081803;28;20489;-59
2023/01/03 07:53:07;;;;;;;12.80;6.35;;;5.80;99.90;;;;;;5075336;28;20045;-59
2023/01/03 07:55:36;;;;;;;14.18;5.75;;;5.70;99.90;;;;;;5072711;28;20117;-59
2023/01/03 07:58:03;;;;;;;16.33;6.63;;;5.70;99.90;;;;;;5083621;28;20040;-60
2023/01/03 08:00:30;;;;;;;13.93;6.70;;;5.60;99.90;;;;;;5073385;28;20497;-60
2023/01/03 08:02:57;;;;;;;13.90;6.95;;;5.60;99.90;;;;;;5082629;28;20085;-61
2023/01/03 08:05:24;;;;;;;13.65;6.85;;;5.60;99.90;;;;;;5092461;28;20051;-60
2023/01/03 08:07:53;;;;;;;21.48;7.72;;;5.70;99.90;;;;;;5085984;28;20104;-61
2023/01/03 08:13:16;;;;;;;27.83;10.43;;;5.70;99.90;;;;;;5071178;28;20036;-60
2023/01/03 08:15:44;;;;;;;;;;;5.80;99.90;;;;;;5072069;28;20048;-60
2023/01/03 08:18:13;;;;;;;21.52;9.40;;;5.80;99.90;;;;;;5079797;28;20300;-60
2023/01/03 08:20:40;;;;;;;18.05;9.48;;;5.80;99.90;;;;;;5084320;28;20086;-61
2023/01/03 08:23:07;;;;;;;;;;;5.90;99.90;;;;;;5085004;28;20048;-61
2023/01/03 08:25:33;;;;;;;25.73;10.48;;;5.90;99.90;;;;;;5082765;28;19974;-60
2023/01/03 08:28:01;;;;;;;21.33;9.77;;;5.90;99.90;;;;;;5069434;28;20094;-60
2023/01/03 08:30:28;;;;;;;19.52;9.40;;;6.00;99.90;;;;;;5070132;28;20044;-61
2023/01/03 08:32:57;;;;;;;35.70;14.38;;;6.00;99.90;;;;;;5069470;28;20570;-60
2023/01/03 08:35:25;;;;;;;28.27;11.50;;;6.00;99.90;;;;;;5079997;28;20570;-60
2023/01/03 08:37:53;;;;;;;30.23;12.70;;;6.00;99.90;;;;;;5082364;28;20047;-60
2023/01/03 08:40:20;;;;;;;34.72;14.70;;;6.00;99.90;;;;;;5092039;28;20048;-61
2023/01/03 08:42:47;;;;;;;22.48;12.80;;;6.10;99.90;;;;;;5091227;28;20044;-60
2023/01/03 08:45:16;;;;;;;19.45;10.73;;;6.10;99.90;;;;;;5100968;22;20490;-62
2023/01/03 08:47:45;;;;;;;21.25;8.25;;;6.00;99.90;;;;;;5077257;28;20105;-62
2023/01/03 08:50:12;;;;;;;16.90;9.93;;;6.10;99.90;;;;;;5071339;28;20037;-61
2023/01/03 08:52:39;;;;;;;21.67;9.13;;;6.10;99.90;;;;;;5080619;28;20444;-62
2023/01/03 08:55:07;;;;;;;18.75;9.40;;;6.20;99.90;;;;;;5080917;28;20072;-61
2023/01/03 08:57:34;;;;;;;22.30;10.07;;;6.20;99.90;;;;;;5091493;28;20048;-62
2023/01/03 09:00:01;;;;;;;22.98;10.63;;;6.20;99.90;;;;;;5091291;28;20070;-62
2023/01/03 09:02:27;;;;;;;18.27;9.02;;;6.20;99.90;;;;;;5077548;28;20068;-61
2023/01/03 09:04:55;;;;;;;;;;;6.30;99.90;;;;;;5071570;28;20040;-61
2023/01/03 09:07:21;;;;;;;21.67;11.13;;;6.40;99.90;;;;;;5070139;28;19924;-61
2023/01/03 09:09:48;;;;;;;27.10;13.48;;;6.40;99.90;;;;;;5080696;28;20064;-62
2023/01/03 09:12:15;;;;;;;27.55;13.30;;;6.40;99.90;;;;;;5072694;28;20606;-59
2023/01/03 09:14:42;;;;;;;21.55;11.32;;;6.40;99.90;;;;;;5071280;28;20036;-60
2023/01/03 09:17:08;;;;;;;21.80;10.32;;;6.50;99.90;;;;;;5071184;28;20082;-60
2023/01/03 09:19:35;;;;;;;15.57;8.65;;;6.50;99.90;;;;;;5077872;28;20033;-62
2023/01/03 09:22:02;;;;;;;15.05;8.32;;;6.60;99.90;;;;;;5070220;28;20036;-62
2023/01/03 09:24:29;;;;;;;20.10;8.50;;;6.60;99.90;;;;;;5070936;28;20056;-61
2023/01/03 09:26:55;;;;;;;19.25;9.48;;;6.60;99.90;;;;;;5070443;28;20040;-62
2023/01/03 09:29:22;;;;;;;24.25;8.88;;;6.50;99.90;;;;;;5082019;28;20039;-61
2023/01/03 09:31:49;;;;;;;26.05;13.32;;;6.50;99.90;;;;;;5080788;28;20059;-62
2023/01/03 09:34:17;;;;;;;24.10;11.95;;;6.50;99.90;;;;;;5090280;28;20457;-59
2023/01/03 09:36:44;;;;;;;16.55;7.63;;;6.60;99.90;;;;;;5071515;28;20052;-62
2023/01/03 09:39:11;;;;;;;14.77;6.75;;;6.60;99.90;;;;;;5088531;28;20073;-61
2023/01/03 09:41:38;;;;;;;17.00;6.85;;;6.70;99.90;;;;;;5070278;28;20093;-62
2023/01/03 09:44:07;;;;;;;11.55;6.38;;;6.70;99.90;;;;;;5070647;28;20045;-61
2023/01/03 09:46:35;;;;;;;16.45;6.63;;;6.80;99.90;;;;;;5085875;28;20039;-62
2023/01/03 09:49:04;;;;;;;9.43;4.38;;;6.80;99.90;;;;;;5099425;28;20036;-59
2023/01/03 10:03:54;;;;;;;15.00;6.57;;;7.00;99.90;;;;;;5067253;28;20381;-61
2023/01/03 10:06:39;;;;;;;10.50;5.47;;;7.00;99.90;;;;;;5049902;28;20052;-61
2023/01/03 10:09:16;;;;;;;12.18;5.45;;;7.00;99.90;;;;;;5094038;28;20051;-61
2023/01/03 10:12:01;;;;;;;12.25;6.05;;;7.00;99.90;;;;;;5091357;28;20110;-59
2023/01/03 10:14:46;;;;;;;13.48;5.85;;;7.00;99.90;;;;;;5089921;28;20103;-62
2023/01/03 10:17:39;;;;;;;9.63;5.63;;;7.10;99.90;;;;;;5089979;28;20035;-62
2023/01/03 10:20:26;;;;;;;10.57;6.07;;;7.10;99.90;;;;;;5094686;28;20096;-62
2023/01/03 10:22:56;;;;;;;11.00;5.43;;;7.10;99.90;;;;;;5107339;28;20059;-62
2023/01/03 10:25:24;;;;;;;7.05;4.32;;;7.10;99.90;;;;;;5110951;28;20139;-62
2023/01/03 10:28:22;;;;;;;8.48;4.72;;;7.10;99.90;;;;;;5094969;28;20036;-62
2023/01/03 10:31:20;;;;;;;7.30;4.60;;;7.20;99.90;;;;;;5090944;28;20040;-62
2023/01/03 10:33:48;;;;;;;9.23;4.75;;;7.20;99.90;;;;;;5099614;28;20036;-61
2023/01/03 10:36:17;;;;;;;8.73;5.60;;;7.10;99.90;;;;;;5101686;28;20036;-61
2023/01/03 10:38:44;;;;;;;11.50;5.47;;;7.10;99.90;;;;;;5107484;28;20052;-62
2023/01/03 10:41:37;;;;;;;11.23;5.10;;;7.20;99.90;;;;;;5114563;28;20523;-62
2023/01/03 10:44:04;;;;;;;17.40;6.32;;;7.10;99.90;;;;;;5110093;28;20047;-62
2023/01/03 10:46:31;;;;;;;13.02;5.13;;;7.10;99.90;;;;;;5109814;28;20092;-62
2023/01/03 10:49:18;;;;;;;11.32;5.32;;;7.10;99.90;;;;;;5114901;28;20046;-62
2023/01/03 10:52:15;;;;;;;8.20;4.90;;;7.10;99.90;;;;;;5099668;28;20043;-61
2023/01/03 10:54:42;;;;;;;8.23;5.33;;;7.00;99.90;;;;;;5112095;28;20039;-61
2023/01/03 10:57:47;;;;;;;8.70;4.57;;;7.00;99.90;;;;;;5112148;28;20489;-61
2023/01/03 11:00:30;;;;;;;8.70;4.43;;;7.00;99.90;;;;;;5094351;28;20044;-61
2023/01/03 11:03:09;;;;;;;7.90;4.55;;;7.00;99.90;;;;;;5107880;28;20043;-62
2023/01/03 11:05:39;;;;;;;8.75;4.40;;;7.00;99.90;;;;;;5111062;28;20056;-62
2023/01/03 11:08:14;;;;;;;7.75;4.38;;;7.00;99.90;;;;;;5109516;28;20032;-62
2023/01/03 11:10:55;;;;;;;10.18;5.13;;;7.00;99.90;;;;;;5101625;28;20032;-62
2023/01/03 11:13:22;;;;;;;8.00;4.38;;;7.00;99.90;;;;;;5095906;28;20039;-62
2023/01/03 11:15:54;;;;;;;9.00;4.05;;;6.90;99.90;;;;;;5112941;28;20080;-62
2023/01/03 11:18:21;;;;;;;9.57;3.28;;;7.00;99.90;;;;;;5097043;28;20048;-62
2023/01/03 11:20:58;;;;;;;5.78;2.70;;;7.00;99.90;;;;;;5085709;28;20044;-62
2023/01/03 11:24:06;;;;;;;8.27;2.78;;;7.00;99.90;;;;;;5112206;28;20048;-62
2023/01/03 11:26:42;;;;;;;5.90;2.45;;;7.00;99.90;;;;;;5063661;28;20056;-62
2023/01/03 11:29:23;;;;;;;5.60;2.47;;;6.90;99.90;;;;;;5103977;28;20410;-62
2023/01/03 11:32:17;;;;;;;3.70;1.80;;;6.90;99.90;;;;;;5105573;28;20043;-61
2023/01/03 11:35:25;;;;;;;5.78;2.13;;;6.90;99.90;;;;;;5101265;28;20047;-62
2023/01/03 11:38:20;;;;;;;3.83;1.85;;;6.90;99.90;;;;;;5085179;28;20047;-62
2023/01/03 11:40:59;;;;;;;3.08;1.65;;;6.90;99.90;;;;;;5105293;28;20043;-62
2023/01/03 11:43:44;;;;;;;8.23;1.98;;;6.90;99.90;;;;;;5107082;28;20040;-61
2023/01/03 11:46:42;;;;;;;6.70;2.10;;;6.90;99.90;;;;;;5098117;28;20131;-62
2023/01/03 11:49:39;;;;;;;6.68;1.92;;;6.90;99.90;;;;;;5112147;28;20496;-61
2023/01/03 11:52:18;;;;;;;7.32;2.45;;;7.00;99.90;;;;;;5102408;28;20035;-62
2023/01/03 11:55:02;;;;;;;3.10;2.03;;;7.10;99.90;;;;;;5101401;28;20453;-62
2023/01/03 11:57:37;;;;;;;6.38;2.10;;;7.10;99.90;;;;;;5111708;28;20117;-62
2023/01/03 12:00:25;;;;;;;4.72;2.63;;;7.10;99.90;;;;;;5100821;28;20036;-61
2023/01/03 12:02:54;;;;;;;5.47;2.60;;;7.10;99.90;;;;;;5095267;28;20048;-62
2023/01/03 12:05:36;;;;;;;8.50;2.30;;;7.10;99.90;;;;;;5106699;28;20043;-61
2023/01/03 12:08:03;;;;;;;5.15;2.72;;;7.20;99.90;;;;;;5108528;28;20063;-62
2023/01/03 12:10:44;;;;;;;6.65;3.45;;;7.20;99.90;;;;;;5103028;28;20040;-62
2023/01/03 12:13:26;;;;;;;6.55;3.63;;;7.20;99.90;;;;;;5097781;28;20036;-62
2023/01/03 12:16:13;;;;;;;6.90;3.80;;;7.20;99.90;;;;;;5107456;28;20040;-62
2023/01/03 12:18:40;;;;;;;5.47;3.85;;;7.30;99.90;;;;;;5106316;28;20051;-62
2023/01/03 12:21:29;;;;;;;5.90;3.38;;;7.30;99.90;;;;;;5101343;28;20447;-62
2023/01/03 12:24:12;;;;;;;8.00;2.70;;;7.30;99.90;;;;;;5091704;28;20040;-62
2023/01/03 12:26:41;;;;;;;7.03;3.10;;;7.40;99.90;;;;;;5092885;28;20044;-62
2023/01/03 12:29:19;;;;;;;6.38;2.42;;;7.50;99.90;;;;;;5092523;28;20036;-61
2023/01/03 12:31:48;;;;;;;;;;;7.50;99.90;;;;;;5112018;28;20031;-62
2023/01/03 12:34:43;;;;;;;4.72;2.45;;;7.50;99.90;;;;;;5109072;28;19919;-62
2023/01/03 12:37:28;;;;;;;3.97;2.28;;;7.50;99.90;;;;;;5096676;28;20435;-61
2023/01/03 12:40:24;;;;;;;8.00;2.60;;;7.50;99.90;;;;;;5107416;28;20039;-62
2023/01/03 12:43:21;;;;;;;7.38;2.55;;;7.50;99.90;;;;;;5100562;28;20036;-62
2023/01/03 12:46:04;;;;;;;8.07;2.08;;;7.50;99.90;;;;;;5095705;28;20488;-62
2023/01/03 12:48:52;;;;;;;4.25;2.13;;;7.50;99.90;;;;;;5103645;28;20035;-62
2023/01/03 12:51:21;;;;;;;4.63;2.08;;;7.50;99.90;;;;;;5097724;28;20493;-62
2023/01/03 12:54:04;;;;;;;5.20;1.90;;;7.60;99.90;;;;;;5103362;28;20507;-65
2023/01/03 12:56:56;;;;;;;4.00;2.00;;;7.70;99.90;;;;;;5097247;28;20068;-69
2023/01/03 12:59:49;;;;;;;7.22;2.60;;;7.70;99.90;;;;;;5100877;28;20070;-69
2023/01/03 13:02:28;;;;;;;4.80;2.35;;;7.80;99.90;;;;;;5099545;28;20093;-62
2023/01/03 13:05:21;;;;;;;5.43;2.33;;;7.80;99.90;;;;;;5110824;28;20035;-67
2023/01/03 13:08:03;;;;;;;7.10;2.60;;;7.80;99.90;;;;;;5102808;28;20043;-67
2023/01/03 13:10:34;;;;;;;5.63;2.50;;;7.80;99.90;;;;;;5099782;28;20616;-66
2023/01/03 13:13:01;;;;;;;7.30;2.65;;;7.80;99.90;;;;;;5106934;28;20043;-64
2023/01/03 13:15:29;;;;;;;;;;;7.80;99.90;;;;;;5111317;28;20954;-66
2023/01/03 13:18:20;;;;;;;5.68;2.42;;;7.80;99.90;;;;;;5098910;28;19920;-69
2023/01/03 13:20:54;;;;;;;5.68;2.28;;;7.80;99.90;;;;;;5105391;28;20039;-66
2023/01/03 13:23:34;;;;;;;6.70;2.80;;;7.70;99.90;;;;;;5108148;28;20039;-67
2023/01/03 13:26:04;;;;;;;4.60;2.10;;;7.70;99.90;;;;;;5098007;28;20043;-68
2023/01/03 13:28:33;;;;;;;4.55;2.20;;;7.70;99.90;;;;;;5105738;28;20027;-68
2023/01/03 13:31:13;;;;;;;4.13;2.75;;;7.70;99.90;;;;;;5108351;28;20434;-69
2023/01/03 13:34:14;;;;;;;10.15;2.47;;;7.70;99.90;;;;;;5098494;28;20040;-68
2023/01/03 13:37:08;;;;;;;4.88;1.90;;;7.70;99.90;;;;;;5103383;28;20054;-69
2023/01/03 13:39:43;;;;;;;4.10;2.10;;;7.70;99.90;;;;;;5107306;28;20096;-69
2023/01/03 13:42:29;;;;;;;5.45;2.47;;;7.70;99.90;;;;;;5099773;28;20085;-66
2023/01/03 13:45:14;;;;;;;12.57;2.83;;;7.70;99.90;;;;;;5097557;28;20758;-68
2023/01/03 13:47:49;;;;;;;8.40;3.05;;;7.70;99.90;;;;;;5107209;28;20039;-68
2023/01/03 13:50:25;;;;;;;6.53;2.53;;;7.80;99.90;;;;;;5109587;28;20039;-66
2023/01/03 13:53:08;;;;;;;11.82;3.20;;;7.90;99.90;;;;;;5102028;28;20027;-69
2023/01/03 13:55:46;;;;;;;5.13;3.05;;;8.00;99.90;;;;;;5107866;28;20112;-69
2023/01/03 13:58:23;;;;;;;14.38;3.10;;;7.90;99.90;;;;;;5109642;28;20089;-69
2023/01/03 14:00:56;;;;;;;6.07;3.00;;;7.90;99.90;;;;;;5097809;28;20118;-68
2023/01/03 14:03:39;;;;;;;5.13;3.33;;;7.90;99.90;;;;;;5098552;28;20040;-68
2023/01/03 14:06:18;;;;;;;8.15;2.65;;;7.90;99.90;;;;;;5090319;28;20087;-67
2023/01/03 14:08:47;;;;;;;8.82;3.30;;;7.90;99.90;;;;;;5095425;28;20739;-68
2023/01/03 14:11:25;;;;;;;6.40;3.00;;;7.80;99.90;;;;;;5090849;28;20089;-68
2023/01/03 14:13:54;;;;;;;;;;;7.70;99.90;;;;;;5089692;28;20052;-68
2023/01/03 14:16:40;;;;;;;4.43;2.92;;;7.70;99.90;;;;;;5092817;28;19946;-63
2023/01/03 14:19:33;;;;;;;6.38;2.95;;;7.70;99.90;;;;;;5099510;28;20093;-63
2023/01/03 14:22:03;;;;;;;6.00;3.10;;;7.70;99.90;;;;;;5108321;28;20455;-63
2023/01/03 14:24:56;;;;;;;5.85;2.67;;;7.70;99.90;;;;;;5107708;28;20044;-63
2023/01/03 14:27:28;;;;;;;5.60;2.95;;;7.60;99.90;;;;;;5099608;28;20044;-63
2023/01/03 14:29:54;;;;;;;4.00;2.95;;;7.60;99.90;;;;;;5109530;28;20408;-62